createdAt,value
2018-07-03T00:01:33.362Z,1.27
2018-07-03T00:04:01.826Z,1.13
2018-07-03T00:06:30.625Z,1.30
2018-07-03T00:08:58.974Z,1.20
2018-07-03T00:11:27.451Z,1.03
2018-07-03T00:13:55.830Z,1.43
2018-07-03T00:16:29.433Z,1.20
2018-07-03T00:18:57.927Z,1.10
2018-07-03T00:21:26.205Z,1.30
2018-07-03T00:23:54.789Z,1.30
2018-07-03T00:26:23.212Z,1.23
2018-07-03T00:28:51.507Z,1.17
2018-07-03T00:31:19.836Z,1.40
2018-07-03T00:33:48.243Z,1.87
2018-07-03T00:36:16.599Z,2.00
2018-07-03T00:38:44.897Z,1.47
2018-07-03T00:41:13.318Z,1.27
2018-07-03T00:43:42.242Z,1.40
2018-07-03T00:46:10.625Z,1.70
2018-07-03T00:48:39.067Z,1.30
2018-07-03T00:51:08.326Z,1.40
2018-07-03T00:53:36.674Z,1.37
2018-07-03T00:56:05.362Z,1.40
2018-07-03T00:58:33.654Z,1.23
2018-07-03T01:01:01.873Z,1.43
2018-07-03T01:03:30.418Z,1.10
2018-07-03T01:05:58.720Z,1.60
2018-07-03T01:08:26.965Z,1.20
2018-07-03T01:10:55.300Z,1.40
2018-07-03T01:13:23.637Z,1.50
2018-07-03T01:15:52.143Z,1.30
2018-07-03T01:18:20.504Z,1.40
2018-07-03T01:20:48.864Z,1.50
2018-07-03T01:23:17.137Z,1.57
2018-07-03T01:25:45.494Z,1.50
2018-07-03T01:28:13.809Z,1.47
2018-07-03T01:30:42.452Z,1.30
2018-07-03T01:33:11.036Z,1.50
2018-07-03T01:35:39.301Z,1.50
2018-07-03T01:38:07.601Z,1.30
2018-07-03T01:40:35.921Z,1.50
2018-07-03T01:43:04.266Z,1.30
2018-07-03T01:45:32.544Z,1.40
2018-07-03T01:48:01.057Z,1.50
2018-07-03T01:50:29.452Z,1.47
2018-07-03T01:52:57.778Z,1.40
2018-07-03T01:55:26.132Z,1.30
2018-07-03T01:57:54.432Z,1.50
2018-07-03T02:00:22.727Z,1.70
2018-07-03T02:02:50.954Z,1.60
2018-07-03T02:05:19.266Z,1.40
2018-07-03T02:07:47.639Z,1.50
2018-07-03T02:10:15.985Z,1.20
2018-07-03T02:12:45.432Z,1.60
2018-07-03T02:15:13.704Z,1.70
2018-07-03T02:17:42.040Z,1.67
2018-07-03T02:20:10.994Z,1.40
2018-07-03T02:22:39.303Z,1.17
2018-07-03T02:25:07.565Z,1.30
2018-07-03T02:27:35.870Z,1.40
2018-07-03T02:30:04.756Z,1.33
2018-07-03T02:32:33.125Z,1.40
2018-07-03T02:35:01.430Z,1.60
2018-07-03T02:37:29.910Z,1.43
2018-07-03T02:39:58.181Z,1.20
2018-07-03T02:42:26.532Z,1.47
2018-07-03T02:44:54.884Z,1.53
2018-07-03T02:47:23.207Z,1.50
2018-07-03T02:49:51.611Z,1.43
2018-07-03T02:52:19.921Z,1.10
2018-07-03T02:54:48.625Z,1.63
2018-07-03T02:57:16.941Z,1.70
2018-07-03T02:59:45.301Z,1.80
2018-07-03T03:02:13.582Z,1.20
2018-07-03T03:04:42.005Z,1.43
2018-07-03T03:07:10.304Z,1.40
2018-07-03T03:09:38.693Z,1.27
2018-07-03T03:12:07.121Z,1.30
2018-07-03T03:14:35.453Z,1.30
2018-07-03T03:17:03.763Z,1.40
2018-07-03T03:19:32.249Z,1.30
2018-07-03T03:22:00.582Z,1.40
2018-07-03T03:24:29.001Z,1.43
2018-07-03T03:26:57.413Z,1.50
2018-07-03T03:29:25.729Z,1.20
2018-07-03T03:31:54.157Z,1.50
2018-07-03T03:34:22.608Z,1.70
2018-07-03T03:36:50.957Z,1.30
2018-07-03T03:39:19.337Z,1.47
2018-07-03T03:41:47.678Z,1.00
2018-07-03T03:44:16.005Z,1.60
2018-07-03T03:46:44.374Z,1.20
2018-07-03T03:49:12.647Z,1.40
2018-07-03T03:51:40.961Z,1.30
2018-07-03T03:54:09.337Z,1.30
2018-07-03T03:56:37.725Z,1.23
2018-07-03T03:59:06.089Z,1.13
2018-07-03T04:01:34.433Z,1.33
2018-07-03T04:04:02.764Z,1.27
2018-07-03T04:06:31.075Z,1.13
2018-07-03T04:08:59.356Z,1.47
2018-07-03T04:11:27.829Z,1.27
2018-07-03T04:13:56.122Z,1.40
2018-07-03T04:16:24.614Z,1.40
2018-07-03T04:18:52.916Z,1.07
2018-07-03T04:21:21.377Z,1.27
2018-07-03T04:23:49.759Z,1.40
2018-07-03T04:26:18.195Z,1.10
2018-07-03T04:28:46.497Z,1.63
2018-07-03T04:31:14.926Z,1.40
2018-07-03T04:33:43.333Z,1.20
2018-07-03T04:36:11.784Z,1.20
2018-07-03T04:38:40.047Z,1.40
2018-07-03T04:41:08.263Z,1.27
2018-07-03T04:43:36.568Z,1.33
2018-07-03T04:46:05.041Z,1.47
2018-07-03T04:48:33.561Z,2.63
2018-07-03T04:51:01.935Z,5.63
2018-07-03T04:53:32.023Z,3.03
2018-07-03T04:56:00.978Z,5.57
2018-07-03T04:58:29.372Z,6.27
2018-07-03T05:00:57.697Z,7.23
2018-07-03T05:03:26.133Z,5.57
2018-07-03T05:05:54.514Z,2.77
2018-07-03T05:08:22.855Z,2.73
2018-07-03T05:10:51.212Z,2.60
2018-07-03T05:13:19.683Z,4.00
2018-07-03T05:21:44.850Z,2.13
2018-07-03T05:24:14.130Z,1.80
2018-07-03T05:26:44.044Z,2.83
2018-07-03T05:29:13.675Z,2.30
2018-07-03T05:31:42.886Z,2.47
2018-07-03T05:34:14.109Z,2.33
2018-07-03T05:36:43.240Z,2.47
2018-07-03T05:39:14.063Z,1.97
2018-07-03T05:41:43.908Z,2.23
2018-07-03T05:44:12.951Z,1.97
2018-07-03T05:46:42.428Z,1.90
2018-07-03T05:49:11.712Z,1.77
2018-07-03T05:51:41.027Z,2.10
2018-07-03T05:54:10.252Z,1.60
2018-07-03T05:56:39.360Z,2.00
2018-07-03T05:59:08.470Z,1.83
2018-07-03T06:01:37.796Z,1.87
2018-07-03T06:04:07.930Z,1.97
2018-07-03T06:06:37.135Z,1.70
2018-07-03T06:09:08.551Z,2.03
2018-07-03T06:11:37.209Z,2.00
2018-07-03T06:14:07.167Z,2.20
2018-07-03T06:16:36.348Z,1.70
2018-07-03T06:19:05.659Z,1.90
2018-07-03T06:21:34.668Z,2.40
2018-07-03T06:24:04.098Z,1.70
2018-07-03T06:26:33.181Z,1.80
2018-07-03T06:29:02.431Z,14.73
2018-07-03T06:31:31.973Z,5.83
2018-07-03T06:34:00.879Z,2.00
2018-07-03T06:36:29.659Z,2.00
2018-07-03T06:38:58.865Z,1.70
2018-07-03T06:41:29.372Z,2.23
2018-07-03T06:43:58.468Z,1.90
2018-07-03T06:46:27.389Z,5.00
2018-07-03T06:48:57.090Z,1.70
2018-07-03T06:51:25.976Z,2.57
2018-07-03T06:53:54.825Z,3.10
2018-07-03T06:56:24.832Z,1.77
2018-07-03T06:58:54.326Z,1.67
2018-07-03T07:01:23.494Z,4.20
2018-07-03T07:03:52.543Z,3.20
2018-07-03T07:06:23.742Z,1.70
2018-07-03T07:08:53.247Z,1.40
2018-07-03T07:11:22.181Z,1.20
2018-07-03T07:13:55.224Z,1.70
2018-07-03T07:16:29.829Z,1.60
2018-07-03T07:19:03.471Z,1.73
2018-07-03T07:21:33.055Z,1.40
2018-07-03T07:24:02.032Z,1.33
2018-07-03T07:26:30.921Z,1.63
2018-07-03T07:28:59.944Z,1.40
2018-07-03T07:31:28.667Z,1.30
2018-07-03T07:33:57.594Z,1.73
2018-07-03T07:36:26.587Z,1.37
2018-07-03T07:38:56.190Z,1.20
2018-07-03T07:41:25.522Z,1.40
2018-07-03T07:43:54.918Z,1.50
2018-07-03T07:46:23.860Z,1.40
2018-07-03T07:48:53.449Z,1.70
2018-07-03T07:51:22.463Z,1.35
2018-07-03T07:53:51.461Z,5.58
2018-07-03T07:56:20.599Z,1.17
2018-07-03T07:58:49.399Z,1.60
2018-07-03T08:01:18.752Z,1.30
2018-07-03T08:03:47.664Z,1.27
2018-07-03T08:06:17.096Z,1.32
2018-07-03T08:08:45.975Z,6.65
2018-07-03T08:11:15.555Z,1.77
2018-07-03T08:13:44.600Z,2.20
2018-07-03T08:16:13.603Z,2.75
2018-07-03T08:18:42.480Z,1.30
2018-07-03T08:21:11.437Z,1.17
2018-07-03T08:23:40.353Z,0.98
2018-07-03T08:26:09.215Z,1.00
2018-07-03T08:28:38.216Z,1.17
2018-07-03T08:31:07.053Z,3.27
2018-07-03T08:33:36.269Z,2.37
2018-07-03T08:36:05.863Z,2.20
2018-07-03T08:38:34.714Z,1.45
2018-07-03T08:41:03.804Z,1.00
2018-07-03T08:43:32.830Z,1.17
2018-07-03T08:46:01.590Z,1.27
2018-07-03T08:48:31.136Z,1.05
2018-07-03T08:50:59.921Z,1.17
2018-07-03T08:53:28.981Z,2.02
2018-07-03T08:55:57.749Z,4.37
2018-07-03T08:58:26.468Z,2.02
2018-07-03T09:00:55.641Z,0.98
2018-07-03T09:03:24.435Z,0.93
2018-07-03T09:05:53.552Z,1.05
2018-07-03T09:08:22.444Z,0.90
2018-07-03T09:10:51.186Z,1.10
2018-07-03T09:13:19.909Z,1.05
2018-07-03T09:15:48.994Z,4.25
2018-07-03T09:18:17.716Z,2.17
2018-07-03T09:20:46.548Z,1.10
2018-07-03T09:23:15.579Z,0.95
2018-07-03T09:25:45.195Z,0.80
2018-07-03T09:28:14.038Z,0.90
2018-07-03T09:30:42.852Z,1.10
2018-07-03T09:33:11.845Z,0.98
2018-07-03T09:35:40.719Z,1.10
2018-07-03T09:38:10.057Z,2.98
2018-07-03T09:40:39.338Z,3.12
2018-07-03T09:43:08.802Z,1.05
2018-07-03T09:45:37.573Z,1.10
2018-07-03T09:48:06.767Z,1.67
2018-07-03T09:50:35.792Z,0.90
2018-07-03T09:53:05.708Z,2.30
2018-07-03T09:55:34.562Z,1.02
2018-07-03T09:58:03.234Z,1.20
2018-07-03T10:00:38.022Z,0.93
2018-07-03T10:03:06.837Z,1.12
2018-07-03T10:05:36.228Z,1.00
2018-07-03T10:08:05.384Z,1.10
2018-07-03T10:10:34.320Z,0.98
2018-07-03T10:13:03.070Z,0.98
2018-07-03T10:15:31.756Z,1.00
2018-07-03T10:18:05.342Z,1.12
2018-07-03T10:20:34.232Z,1.30
2018-07-03T10:23:04.146Z,1.42
2018-07-03T10:25:33.013Z,1.10
2018-07-03T10:28:01.882Z,1.20
2018-07-03T10:30:30.923Z,1.10
2018-07-03T10:32:59.846Z,1.00
2018-07-03T10:35:29.366Z,1.30
2018-07-03T10:37:58.133Z,1.52
2018-07-03T10:40:27.090Z,3.70
2018-07-03T10:42:55.920Z,1.62
2018-07-03T10:45:24.757Z,1.10
2018-07-03T10:47:53.729Z,1.27
2018-07-03T10:50:22.982Z,1.10
2018-07-03T10:52:52.163Z,0.95
2018-07-03T10:55:22.159Z,0.90
2018-07-03T10:57:51.241Z,1.00
2018-07-03T11:00:20.106Z,1.20
2018-07-03T11:02:49.480Z,1.20
2018-07-03T11:05:19.701Z,1.12
2018-07-03T11:07:48.528Z,1.70
2018-07-03T11:10:17.233Z,1.98
2018-07-03T11:12:45.865Z,1.05
2018-07-03T11:15:14.964Z,1.37
2018-07-03T11:17:43.803Z,0.90
2018-07-03T11:20:13.222Z,1.30
2018-07-03T11:22:42.604Z,1.10
2018-07-03T11:25:11.630Z,1.10
2018-07-03T11:27:40.435Z,1.07
2018-07-03T11:30:09.873Z,1.40
2018-07-03T11:32:38.651Z,0.98
2018-07-03T11:35:07.439Z,1.50
2018-07-03T11:37:36.747Z,1.55
2018-07-03T11:40:05.938Z,1.87
2018-07-03T11:42:35.761Z,1.50
2018-07-03T11:45:05.094Z,1.65
2018-07-03T11:47:34.634Z,1.60
2018-07-03T11:50:04.061Z,1.62
2018-07-03T11:52:33.243Z,1.77
2018-07-03T11:55:01.833Z,1.57
2018-07-03T11:57:30.544Z,1.40
2018-07-03T11:59:59.721Z,1.55
2018-07-03T12:02:28.378Z,1.40
2018-07-03T12:04:57.840Z,1.40
2018-07-03T12:07:26.929Z,1.45
2018-07-03T12:09:56.527Z,1.30
2018-07-03T12:12:26.235Z,1.40
2018-07-03T12:14:55.704Z,3.15
2018-07-03T12:17:25.440Z,3.08
2018-07-03T12:19:54.580Z,1.47
2018-07-03T12:22:23.433Z,1.55
2018-07-03T12:24:54.353Z,1.72
2018-07-03T12:27:23.786Z,1.70
2018-07-03T12:29:52.682Z,1.40
2018-07-03T12:32:21.865Z,1.72
2018-07-03T12:34:50.786Z,1.50
2018-07-03T12:37:19.858Z,1.55
2018-07-03T12:39:48.966Z,1.75
2018-07-03T12:42:17.677Z,1.62
2018-07-03T12:44:46.440Z,1.80
2018-07-03T12:47:15.558Z,2.45
2018-07-03T12:49:44.452Z,6.25
2018-07-03T12:52:13.651Z,1.95
2018-07-03T12:54:42.557Z,2.20
2018-07-03T12:57:11.735Z,2.20
2018-07-03T12:59:40.731Z,2.20
2018-07-03T13:02:10.877Z,1.98
2018-07-03T13:04:40.114Z,2.10
2018-07-03T13:07:08.770Z,2.50
2018-07-03T13:09:37.680Z,2.50
2018-07-03T13:12:07.267Z,2.85
2018-07-03T13:14:36.632Z,2.65
2018-07-03T13:17:06.058Z,2.42
2018-07-03T13:19:34.860Z,3.00
2018-07-03T13:22:04.922Z,3.62
2018-07-03T13:24:34.018Z,2.72
2018-07-03T13:27:03.373Z,2.90
2018-07-03T13:29:32.353Z,2.40
2018-07-03T13:32:01.281Z,3.15
2018-07-03T13:34:30.061Z,2.90
2018-07-03T13:36:59.021Z,2.92
2018-07-03T13:39:28.045Z,2.62
2018-07-03T13:41:56.852Z,3.00
2018-07-03T13:44:25.987Z,3.17
2018-07-03T13:46:55.989Z,2.70
2018-07-03T13:49:24.929Z,2.50
2018-07-03T13:51:54.240Z,2.87
2018-07-03T13:54:23.219Z,2.60
2018-07-03T13:56:52.010Z,2.72
2018-07-03T13:59:21.323Z,2.90
2018-07-03T14:01:50.193Z,2.95
2018-07-03T14:04:20.305Z,3.00
2018-07-03T14:06:49.057Z,3.02
2018-07-03T14:09:18.688Z,6.22
2018-07-03T14:11:47.518Z,3.33
2018-07-03T14:14:16.463Z,3.15
2018-07-03T14:16:45.403Z,3.35
2018-07-03T14:19:15.040Z,2.95
2018-07-03T14:21:44.024Z,3.10
2018-07-03T14:24:13.267Z,3.83
2018-07-03T14:26:42.296Z,2.92
2018-07-03T14:29:11.193Z,3.05
2018-07-03T14:31:40.092Z,3.95
2018-07-03T14:34:08.962Z,2.87
2018-07-03T14:36:37.828Z,2.87
2018-07-03T14:39:10.202Z,2.62
2018-07-03T14:41:39.681Z,4.45
2018-07-03T14:44:08.585Z,4.00
2018-07-03T14:46:37.428Z,2.95
2018-07-03T14:49:06.531Z,2.77
2018-07-03T14:51:35.495Z,2.92
2018-07-03T14:54:04.254Z,3.10
2018-07-03T14:56:33.247Z,2.70
2018-07-03T14:59:02.795Z,2.52
2018-07-03T15:01:31.533Z,2.30
2018-07-03T15:04:00.571Z,3.22
2018-07-03T15:06:29.668Z,3.45
2018-07-03T15:08:58.853Z,3.12
2018-07-03T15:11:28.250Z,2.10
2018-07-03T15:13:57.456Z,2.10
2018-07-03T15:16:26.188Z,2.10
2018-07-03T15:19:02.052Z,1.55
2018-07-03T15:21:31.040Z,8.53
2018-07-03T15:24:00.307Z,2.15
2018-07-03T15:26:29.350Z,2.40
2018-07-03T15:28:58.213Z,2.10
2018-07-03T15:31:27.922Z,2.25
2018-07-03T15:33:56.959Z,1.80
2018-07-03T15:36:25.778Z,2.20
2018-07-03T15:38:54.930Z,2.12
2018-07-03T15:41:24.209Z,2.30
2018-07-03T15:44:03.900Z,2.22
2018-07-03T15:46:33.049Z,2.05
2018-07-03T15:49:01.899Z,2.77
2018-07-03T15:51:30.569Z,4.85
2018-07-03T15:53:59.822Z,3.02
2018-07-03T15:56:28.672Z,2.10
2018-07-03T15:58:57.693Z,2.55
2018-07-03T16:01:26.685Z,1.82
2018-07-03T16:04:10.601Z,3.70
2018-07-03T16:07:22.028Z,2.72
2018-07-03T16:09:51.015Z,2.42
2018-07-03T16:12:23.042Z,2.10
2018-07-03T16:14:54.090Z,1.70
2018-07-03T16:17:26.658Z,1.70
2018-07-03T16:20:04.740Z,1.92
2018-07-03T16:22:34.788Z,1.77
2018-07-03T16:25:11.022Z,2.20
2018-07-03T16:27:45.042Z,2.17
2018-07-03T16:30:16.780Z,1.75
2018-07-03T16:32:47.906Z,2.08
2018-07-03T16:35:21.055Z,1.82
2018-07-03T16:37:52.929Z,1.82
2018-07-03T16:40:24.940Z,1.87
2018-07-03T16:42:55.549Z,1.92
2018-07-03T16:45:33.345Z,2.47
2018-07-03T16:48:08.844Z,1.70
2018-07-03T16:50:40.590Z,2.15
2018-07-03T16:53:14.788Z,2.17
2018-07-03T16:55:47.127Z,1.77
2018-07-03T16:58:18.203Z,1.95
2018-07-03T17:00:47.540Z,2.27
2018-07-03T17:03:17.768Z,1.85
2018-07-03T17:05:46.688Z,1.98
2018-07-03T17:11:54.465Z,2.05
2018-07-03T17:14:25.033Z,2.60
2018-07-03T17:16:55.207Z,2.55
2018-07-03T17:19:31.687Z,2.65
2018-07-03T17:22:02.026Z,2.40
2018-07-03T17:24:33.510Z,2.27
2018-07-03T17:27:03.971Z,2.20
2018-07-03T17:29:33.517Z,1.77
2018-07-03T17:32:02.527Z,1.70
2018-07-03T17:34:31.396Z,1.50
2018-07-03T17:37:00.942Z,5.35
2018-07-03T17:39:40.807Z,1.75
2018-07-03T17:42:20.699Z,1.77
2018-07-03T17:46:01.561Z,1.72
2018-07-03T17:48:30.699Z,1.70
2018-07-03T17:50:59.708Z,2.30
2018-07-03T17:53:28.457Z,5.10
2018-07-03T17:55:58.145Z,3.30
2018-07-03T17:58:27.398Z,2.08
2018-07-03T18:00:57.153Z,1.90
2018-07-03T18:03:26.567Z,2.00
2018-07-03T18:05:55.796Z,2.62
2018-07-03T18:08:25.107Z,2.80
2018-07-03T18:10:58.056Z,3.10
2018-07-03T18:13:28.099Z,4.20
2018-07-03T18:15:58.767Z,18.15
2018-07-03T18:18:36.763Z,4.30
2018-07-03T18:21:05.963Z,2.60
2018-07-03T18:23:36.056Z,2.80
2018-07-03T18:26:09.127Z,2.08
2018-07-03T18:28:38.507Z,2.60
2018-07-03T18:31:07.560Z,1.92
2018-07-03T18:33:37.029Z,2.20
2018-07-03T18:36:08.500Z,2.10
2018-07-03T18:38:37.935Z,5.40
2018-07-03T18:41:06.979Z,4.28
2018-07-03T18:43:35.884Z,4.12
2018-07-03T18:46:05.238Z,2.75
2018-07-03T18:48:35.826Z,2.33
2018-07-03T18:51:06.967Z,2.40
2018-07-03T18:53:37.046Z,2.40
2018-07-03T18:56:06.888Z,2.12
2018-07-03T18:58:35.838Z,2.60
2018-07-03T19:01:06.041Z,2.50
2018-07-03T19:03:35.462Z,2.17
2018-07-03T19:06:07.304Z,2.60
2018-07-03T19:08:37.275Z,2.20
2018-07-03T19:11:06.378Z,2.67
2018-07-03T19:13:36.252Z,2.70
2018-07-03T19:16:05.447Z,2.72
2018-07-03T19:18:34.370Z,2.83
2018-07-03T19:21:03.365Z,3.05
2018-07-03T19:23:32.420Z,2.77
2018-07-03T19:26:01.589Z,2.52
2018-07-03T19:28:30.354Z,4.00
2018-07-03T19:30:59.304Z,3.40
2018-07-03T19:33:28.161Z,3.02
2018-07-03T19:35:58.031Z,2.95
2018-07-03T19:38:27.245Z,3.20
2018-07-03T19:40:57.183Z,3.45
2018-07-03T19:43:30.304Z,3.05
2018-07-03T19:45:59.882Z,3.85
2018-07-03T19:48:29.100Z,3.30
2018-07-03T19:50:58.160Z,3.05
2018-07-03T19:53:27.142Z,3.17
2018-07-03T19:55:57.665Z,3.00
2018-07-03T19:58:27.305Z,3.12
2018-07-03T20:00:57.108Z,3.30
2018-07-03T20:03:26.178Z,3.40
2018-07-03T20:05:55.287Z,3.37
2018-07-03T20:08:24.378Z,3.20
2018-07-03T20:10:53.581Z,3.10
2018-07-03T20:13:22.291Z,3.10
2018-07-03T20:15:50.940Z,3.40
2018-07-03T20:18:20.267Z,3.10
2018-07-03T20:20:49.472Z,3.30
2018-07-03T20:23:18.360Z,3.40
2018-07-03T20:25:47.630Z,3.10
2018-07-03T20:28:17.458Z,3.60
2018-07-03T20:30:46.542Z,3.70
2018-07-03T20:33:16.069Z,3.30
2018-07-03T20:35:48.763Z,3.50
2018-07-03T20:38:17.385Z,4.00
2018-07-03T20:41:09.232Z,3.60
2018-07-03T20:43:40.974Z,3.80
2018-07-03T20:46:13.387Z,3.30
2018-07-03T20:48:43.038Z,3.60
2018-07-03T20:51:11.887Z,3.37
2018-07-03T20:53:52.511Z,3.50
2018-07-03T20:56:23.045Z,3.93
2018-07-03T20:58:52.966Z,3.77
2018-07-03T21:01:22.440Z,3.50
2018-07-03T21:03:52.199Z,3.43
2018-07-03T21:06:21.614Z,3.23
2018-07-03T21:08:50.709Z,3.70
2018-07-03T21:11:20.037Z,3.40
2018-07-03T21:13:49.516Z,3.70
2018-07-03T21:16:18.315Z,3.53
2018-07-03T21:18:48.425Z,3.57
2018-07-03T21:21:18.559Z,3.67
2018-07-03T21:23:47.842Z,3.67
2018-07-03T21:26:17.099Z,3.87
2018-07-03T21:28:45.887Z,3.80
2018-07-03T21:31:14.968Z,3.50
2018-07-03T21:33:43.964Z,3.13
2018-07-03T21:36:13.284Z,4.00
2018-07-03T21:38:42.199Z,4.23
2018-07-03T21:41:13.645Z,4.33
2018-07-03T21:43:45.823Z,4.90
2018-07-03T21:46:14.951Z,4.37
2018-07-03T21:48:46.770Z,4.67
2018-07-03T21:51:17.665Z,4.50
2018-07-03T21:53:48.078Z,4.40
2018-07-03T21:56:18.291Z,4.23
2018-07-03T21:58:49.726Z,4.40
2018-07-03T22:01:19.054Z,4.63
2018-07-03T22:03:49.666Z,4.67
2018-07-03T22:06:20.160Z,4.47
2018-07-03T22:08:49.132Z,4.90
2018-07-03T22:11:18.740Z,4.63
2018-07-03T22:13:47.736Z,4.63
2018-07-03T22:16:16.739Z,4.77
2018-07-03T22:18:45.610Z,4.70
2018-07-03T22:21:17.030Z,4.53
2018-07-03T22:23:45.934Z,5.20
2018-07-03T22:26:15.842Z,6.07
2018-07-03T22:28:45.137Z,5.27
2018-07-03T22:31:13.988Z,5.97
2018-07-03T22:33:42.983Z,5.47
2018-07-03T22:36:11.907Z,5.37
2018-07-03T22:38:41.211Z,7.80
2018-07-03T22:41:15.671Z,7.30
2018-07-03T22:43:45.901Z,5.07
2018-07-03T22:49:25.037Z,5.60
2018-07-03T22:51:54.858Z,7.37
2018-07-03T22:54:23.757Z,5.50
2018-07-03T22:56:53.168Z,5.63
2018-07-03T22:59:22.063Z,5.53
2018-07-03T23:01:51.585Z,5.03
2018-07-03T23:04:20.204Z,4.90
2018-07-03T23:06:49.115Z,5.20
2018-07-03T23:09:18.031Z,4.77
2018-07-03T23:11:46.916Z,5.47
2018-07-03T23:14:16.338Z,5.03
2018-07-03T23:16:45.339Z,5.43
2018-07-03T23:19:14.401Z,5.33
2018-07-03T23:21:43.651Z,5.60
2018-07-03T23:24:12.529Z,5.50
2018-07-03T23:26:41.870Z,5.33
2018-07-03T23:29:10.812Z,5.57
2018-07-03T23:31:40.104Z,5.80
2018-07-03T23:34:10.191Z,5.50
2018-07-03T23:36:39.229Z,5.53
2018-07-03T23:39:09.322Z,5.60
2018-07-03T23:41:38.166Z,5.33
2018-07-03T23:44:07.052Z,5.83
2018-07-03T23:46:47.085Z,5.80
2018-07-03T23:49:27.280Z,5.33
2018-07-03T23:52:07.193Z,5.30
2018-07-03T23:54:47.326Z,4.80
2018-07-03T23:57:27.425Z,4.97
